Time;durP1;ratioP1;P1;durP2;ratioP2;P2;SDS_P1;SDS_P2;PMS_P1;PMS_P2;Temp;Humidity;BMP_temperature;BMP_pressure;BME280_temperature;BME280_humidity;BME280_pressure;Samples;Min_cycle;Max_cycle;Signal;HPM_P1;HPM_P2
2023/04/18 00:01:43;;;;;;;17.37;9.33;;;;;;;-145.18;100.00;60484.78;5006231;28;20018;-61
2023/04/18 00:04:09;;;;;;;15.73;9.20;;;;;;;-145.18;100.00;60484.78;5012266;28;20453;-60
2023/04/18 00:06:37;;;;;;;16.70;7.97;;;;;;;-145.18;100.00;60484.78;5015123;28;20033;-61
2023/04/18 00:09:03;;;;;;;15.00;8.73;;;;;;;-145.18;100.00;60484.78;5013557;28;20104;-60
2023/04/18 00:11:29;;;;;;;13.17;8.00;;;;;;;-145.18;100.00;60484.78;5018422;28;20116;-61
2023/04/18 00:13:56;;;;;;;13.13;7.90;;;;;;;-145.18;100.00;60484.78;5024033;28;20064;-64
2023/04/18 00:16:22;;;;;;;14.60;8.00;;;;;;;-145.18;100.00;60484.78;5013276;28;20026;-61
2023/04/18 00:18:48;;;;;;;13.87;8.10;;;;;;;-145.18;100.00;60484.78;5022925;28;20025;-61
2023/04/18 00:21:13;;;;;;;14.57;8.53;;;;;;;-145.18;100.00;60484.78;5013726;28;20029;-60
2023/04/18 00:23:39;;;;;;;14.77;8.03;;;;;;;-145.18;100.00;60484.78;5014250;28;20117;-61
2023/04/18 00:26:04;;;;;;;11.60;6.67;;;;;;;-145.18;100.00;60484.78;5019424;28;20033;-60
2023/04/18 00:28:30;;;;;;;11.87;7.10;;;;;;;-145.18;100.00;60484.78;5012011;28;20033;-61
2023/04/18 00:30:55;;;;;;;14.77;6.00;;;;;;;-145.18;100.00;60484.78;5009282;28;20034;-61
2023/04/18 00:33:21;;;;;;;10.53;6.10;;;;;;;-145.18;100.00;60484.78;5011146;28;20036;-61
2023/04/18 00:35:46;;;;;;;12.17;6.90;;;;;;;-145.18;100.00;60484.78;5013199;28;20405;-61
2023/04/18 00:38:12;;;;;;;12.43;7.00;;;;;;;-145.18;100.00;60484.78;5015214;28;20040;-61
2023/04/18 00:40:38;;;;;;;11.03;6.33;;;;;;;-145.18;100.00;60484.78;5011975;28;20461;-61
2023/04/18 00:43:03;;;;;;;12.20;7.17;;;;;;;-145.18;100.00;60484.78;5012963;28;20521;-61
2023/04/18 00:45:29;;;;;;;11.23;6.50;;;;;;;-145.18;100.00;60484.78;5009951;28;20034;-61
2023/04/18 00:47:55;;;;;;;9.00;4.27;;;;;;;-145.18;100.00;60484.78;5013534;28;20446;-61
2023/04/18 00:50:22;;;;;;;11.47;6.27;;;;;;;-145.18;100.00;60484.78;5011351;28;20030;-61
2023/04/18 00:52:48;;;;;;;10.17;4.93;;;;;;;-145.18;100.00;60484.78;5010913;28;20459;-60
2023/04/18 00:55:14;;;;;;;10.40;6.07;;;;;;;-145.18;100.00;60484.78;5016900;28;20036;-60
2023/04/18 00:57:40;;;;;;;8.13;4.17;;;;;;;-145.18;100.00;60484.78;5014579;28;20041;-61
2023/04/18 01:03:28;;;;;;;5.65;2.85;;;;;;;-145.18;100.00;60484.78;5049192;22;20523;-67
2023/04/18 01:05:54;;;;;;;8.97;4.80;;;;;;;-145.18;100.00;60484.78;5054264;28;20020;-67
2023/04/18 01:08:20;;;;;;;9.57;4.03;;;;;;;-145.18;100.00;60484.78;5055285;28;20020;-67
2023/04/18 01:10:47;;;;;;;6.30;3.37;;;;;;;-145.18;100.00;60484.78;5056597;28;20397;-66
2023/04/18 01:13:14;;;;;;;9.43;5.23;;;;;;;-145.18;100.00;60484.78;5053300;28;20027;-67
2023/04/18 01:15:41;;;;;;;9.43;4.37;;;;;;;-145.18;100.00;60484.78;5050641;28;20484;-68
2023/04/18 01:18:07;;;;;;;8.73;4.03;;;;;;;-145.18;100.00;60484.78;5053196;28;20032;-67
2023/04/18 01:20:35;;;;;;;7.60;4.27;;;;;;;-145.18;100.00;60484.78;5052730;28;20037;-67
2023/04/18 01:23:02;;;;;;;6.37;3.40;;;;;;;-145.18;100.00;60484.78;5050754;28;20025;-67
2023/04/18 01:25:27;;;;;;;6.00;2.73;;;;;;;-145.18;100.00;60484.78;5051889;28;20036;-67
2023/04/18 01:27:53;;;;;;;7.40;4.07;;;;;;;-145.18;100.00;60484.78;5055294;28;20025;-67
2023/04/18 01:30:19;;;;;;;7.13;3.50;;;;;;;-145.18;100.00;60484.78;5051845;28;20480;-66
2023/04/18 01:32:44;;;;;;;6.47;3.23;;;;;;;-145.18;100.00;60484.78;5054354;28;20021;-67
2023/04/18 01:35:10;;;;;;;7.77;4.63;;;;;;;-145.18;100.00;60484.78;5051761;28;20024;-68
2023/04/18 01:37:35;;;;;;;6.57;3.83;;;;;;;-145.18;100.00;60484.78;5048975;28;20028;-67
2023/04/18 01:40:01;;;;;;;8.30;3.93;;;;;;;-145.18;100.00;60484.78;5053710;28;20031;-67
2023/04/18 01:42:26;;;;;;;7.53;3.93;;;;;;;-145.18;100.00;60484.78;5056712;28;20034;-67
2023/04/18 01:44:52;;;;;;;8.57;4.30;;;;;;;-145.18;100.00;60484.78;5054366;28;20740;-67
2023/04/18 01:47:17;;;;;;;9.67;4.13;;;;;;;-145.18;100.00;60484.78;5052709;28;20021;-67
2023/04/18 01:49:46;;;;;;;8.23;4.70;;;;;;;-145.18;100.00;60484.78;5053543;28;20374;-69
2023/04/18 01:52:13;;;;;;;8.97;4.50;;;;;;;-145.18;100.00;60484.78;5052135;28;20094;-67
2023/04/18 01:54:39;;;;;;;7.77;3.97;;;;;;;-145.18;100.00;60484.78;5036600;28;20495;-67
2023/04/18 01:57:04;;;;;;;6.60;3.33;;;;;;;-145.18;100.00;60484.78;5059048;28;20028;-67
2023/04/18 01:59:30;;;;;;;6.83;3.30;;;;;;;-145.18;100.00;60484.78;5052989;28;20029;-67
2023/04/18 02:01:55;;;;;;;5.90;3.00;;;;;;;-145.18;100.00;60484.78;5054837;28;20472;-67
2023/04/18 02:04:21;;;;;;;5.73;3.17;;;;;;;-145.18;100.00;60484.78;5054991;28;20047;-67
2023/04/18 02:06:46;;;;;;;8.93;4.47;;;;;;;-145.18;100.00;60484.78;5049785;28;20113;-67
2023/04/18 02:09:12;;;;;;;6.13;3.40;;;;;;;-145.18;100.00;60484.78;5055186;28;20056;-66
2023/04/18 02:11:37;;;;;;;8.47;4.57;;;;;;;-145.18;100.00;60484.78;5049915;28;20477;-67
2023/04/18 02:14:03;;;;;;;8.33;3.83;;;;;;;-145.18;100.00;60484.78;5055926;28;20059;-67
2023/04/18 02:16:28;;;;;;;9.00;4.50;;;;;;;-145.18;100.00;60484.78;5054208;28;20039;-67
2023/04/18 02:18:54;;;;;;;11.17;4.10;;;;;;;-145.18;100.00;60484.78;5055100;28;20028;-68
2023/04/18 02:21:20;;;;;;;7.20;3.80;;;;;;;-145.18;100.00;60484.78;5052896;28;20492;-68
2023/04/18 02:23:46;;;;;;;8.03;4.60;;;;;;;-145.18;100.00;60484.78;5052752;28;20017;-67
2023/04/18 02:26:11;;;;;;;6.73;3.07;;;;;;;-145.18;100.00;60484.78;5055205;28;20120;-67
2023/04/18 02:28:37;;;;;;;9.07;5.00;;;;;;;-145.18;100.00;60484.78;5051125;28;20025;-68
2023/04/18 02:31:03;;;;;;;7.93;2.90;;;;;;;-145.18;100.00;60484.78;5056172;28;20085;-66
2023/04/18 02:33:29;;;;;;;7.27;3.77;;;;;;;-145.18;100.00;60484.78;5052243;28;20111;-67
2023/04/18 02:35:54;;;;;;;6.43;2.70;;;;;;;-145.18;100.00;60484.78;5051469;28;20118;-68
2023/04/18 02:38:20;;;;;;;8.73;5.03;;;;;;;-145.18;100.00;60484.78;5051160;28;20440;-67
2023/04/18 02:40:45;;;;;;;10.23;5.40;;;;;;;-145.18;100.00;60484.78;5053577;28;20032;-67
2023/04/18 02:43:11;;;;;;;9.63;5.40;;;;;;;-145.18;100.00;60484.78;5058651;28;20377;-67
2023/04/18 02:45:36;;;;;;;8.77;5.30;;;;;;;-145.18;100.00;60484.78;5051244;28;20096;-68
2023/04/18 02:48:02;;;;;;;7.93;4.33;;;;;;;-145.18;100.00;60484.78;5055574;28;20185;-67
2023/04/18 02:50:28;;;;;;;10.23;5.27;;;;;;;-145.18;100.00;60484.78;5050599;28;20040;-67
2023/04/18 02:52:54;;;;;;;8.60;4.80;;;;;;;-145.18;100.00;60484.78;5050352;28;20036;-67
2023/04/18 02:55:20;;;;;;;8.37;3.93;;;;;;;-145.18;100.00;60484.78;5052440;28;20374;-67
2023/04/18 02:57:46;;;;;;;8.37;4.40;;;;;;;-145.18;100.00;60484.78;5053148;28;20075;-67
2023/04/18 03:00:14;;;;;;;9.47;4.70;;;;;;;-145.18;100.00;60484.78;5050946;28;20052;-68
2023/04/18 03:02:40;;;;;;;9.40;4.13;;;;;;;-145.18;100.00;60484.78;5052838;28;20120;-67
2023/04/18 03:05:06;;;;;;;10.77;5.83;;;;;;;-145.18;100.00;60484.78;5051282;28;20031;-69
2023/04/18 03:07:32;;;;;;;10.53;5.47;;;;;;;-145.18;100.00;60484.78;5051670;28;20747;-67
2023/04/18 03:09:58;;;;;;;11.17;5.73;;;;;;;-145.18;100.00;60484.78;5057131;28;20020;-70
2023/04/18 03:12:24;;;;;;;11.27;6.40;;;;;;;-145.18;100.00;60484.78;5055818;28;20032;-69
2023/04/18 03:14:50;;;;;;;12.87;6.20;;;;;;;-145.18;100.00;60484.78;5055624;28;20033;-69
2023/04/18 03:17:15;;;;;;;10.47;5.53;;;;;;;-145.18;100.00;60484.78;5051361;28;20029;-67
2023/04/18 03:19:41;;;;;;;10.73;6.43;;;;;;;-145.18;100.00;60484.78;5056439;28;20021;-68
2023/04/18 03:22:07;;;;;;;12.33;6.37;;;;;;;-145.18;100.00;60484.78;5052844;28;20025;-67
2023/04/18 03:24:32;;;;;;;10.73;5.27;;;;;;;-145.18;100.00;60484.78;5052361;28;20020;-67
2023/04/18 03:26:59;;;;;;;11.13;5.90;;;;;;;-145.18;100.00;60484.78;5051130;28;20039;-68
2023/04/18 03:29:24;;;;;;;8.70;4.57;;;;;;;-145.18;100.00;60484.78;5051193;28;20521;-68
2023/04/18 03:31:50;;;;;;;11.73;5.93;;;;;;;-145.18;100.00;60484.78;5050659;28;20099;-67
2023/04/18 03:34:15;;;;;;;11.77;6.17;;;;;;;-145.18;100.00;60484.78;5058296;28;20048;-67
2023/04/18 03:36:41;;;;;;;7.80;3.67;;;;;;;-145.18;100.00;60484.78;5054843;28;20430;-67
2023/04/18 03:39:06;;;;;;;9.87;5.20;;;;;;;-145.18;100.00;60484.78;5054828;28;20032;-70
2023/04/18 03:41:32;;;;;;;11.20;5.83;;;;;;;-145.18;100.00;60484.78;5057323;28;20017;-68
2023/04/18 03:43:57;;;;;;;11.40;6.27;;;;;;;-145.18;100.00;60484.78;5057645;28;20029;-67
2023/04/18 03:46:23;;;;;;;10.40;6.40;;;;;;;-145.18;100.00;60484.78;5053299;28;20104;-68
2023/04/18 03:48:49;;;;;;;12.10;6.83;;;;;;;-145.18;100.00;60484.78;5054325;28;20092;-68
2023/04/18 03:51:14;;;;;;;10.30;5.93;;;;;;;-145.18;100.00;60484.78;5058115;28;20029;-67
2023/04/18 03:53:40;;;;;;;10.07;6.20;;;;;;;-145.18;100.00;60484.78;5058489;28;20032;-68
2023/04/18 03:56:05;;;;;;;11.70;6.43;;;;;;;-145.18;100.00;60484.78;5053985;28;20032;-67
2023/04/18 03:58:31;;;;;;;12.03;6.90;;;;;;;-145.18;100.00;60484.78;5057834;28;20096;-68
2023/04/18 04:00:56;;;;;;;11.43;6.50;;;;;;;-145.18;100.00;60484.78;5055606;28;20141;-68
2023/04/18 04:03:22;;;;;;;11.63;6.33;;;;;;;-145.18;100.00;60484.78;5053753;28;20378;-67
2023/04/18 04:05:47;;;;;;;12.57;7.27;;;;;;;-145.18;100.00;60484.78;5055253;28;20032;-68
2023/04/18 04:08:15;;;;;;;13.90;7.70;;;;;;;-145.18;100.00;60484.78;5058837;28;20020;-68
2023/04/18 04:10:40;;;;;;;12.00;6.80;;;;;;;-145.18;100.00;60484.78;5056570;28;20504;-68
2023/04/18 04:13:06;;;;;;;14.17;7.90;;;;;;;-145.18;100.00;60484.78;5058401;28;20028;-67
2023/04/18 04:15:31;;;;;;;15.40;8.53;;;;;;;-145.18;100.00;60484.78;5052882;28;20053;-68
2023/04/18 04:17:57;;;;;;;16.60;8.97;;;;;;;-145.18;100.00;60484.78;5056693;28;20326;-67
2023/04/18 04:20:24;;;;;;;15.77;8.83;;;;;;;-145.18;100.00;60484.78;5054672;28;20113;-68
2023/04/18 04:22:52;;;;;;;19.33;9.80;;;;;;;-145.18;100.00;60484.78;5058299;28;20017;-68
2023/04/18 04:25:18;;;;;;;18.87;10.03;;;;;;;-145.18;100.00;60484.78;5052446;28;20086;-68
2023/04/18 04:27:43;;;;;;;18.80;9.97;;;;;;;-145.18;100.00;60484.78;5057062;28;20473;-68
2023/04/18 04:30:10;;;;;;;16.77;8.03;;;;;;;-145.18;100.00;60484.78;5051944;28;20036;-68
2023/04/18 04:32:37;;;;;;;21.73;11.63;;;;;;;-145.18;100.00;60484.78;5055772;28;20083;-68
2023/04/18 04:35:03;;;;;;;20.33;11.77;;;;;;;-145.18;100.00;60484.78;5040246;28;20112;-69
2023/04/18 04:37:29;;;;;;;23.70;11.83;;;;;;;-145.18;100.00;60484.78;5052166;28;20036;-68
2023/04/18 04:39:55;;;;;;;20.43;10.93;;;;;;;-145.18;100.00;60484.78;5054700;28;20052;-68
2023/04/18 04:42:23;;;;;;;25.53;13.50;;;;;;;-145.18;100.00;60484.78;5056281;28;20021;-68
2023/04/18 04:44:49;;;;;;;23.83;11.57;;;;;;;-145.18;100.00;60484.78;5051694;28;20036;-69
2023/04/18 04:47:14;;;;;;;26.17;14.37;;;;;;;-145.18;100.00;60484.78;5054355;28;20037;-68
2023/04/18 04:49:40;;;;;;;26.40;13.60;;;;;;;-145.18;100.00;60484.78;5056969;28;20025;-69
2023/04/18 04:52:05;;;;;;;25.83;13.40;;;;;;;-145.18;100.00;60484.78;5056426;28;20028;-70
2023/04/18 04:54:31;;;;;;;23.53;11.90;;;;;;;-145.18;100.00;60484.78;5050431;28;20032;-69
2023/04/18 04:56:56;;;;;;;26.67;13.60;;;;;;;-145.18;100.00;60484.78;5053255;28;20035;-68
2023/04/18 04:59:22;;;;;;;25.80;13.80;;;;;;;-145.18;100.00;60484.78;5051478;28;20116;-68
2023/04/18 05:01:47;;;;;;;22.53;12.07;;;;;;;-145.18;100.00;60484.78;5052046;28;20020;-69
2023/04/18 05:04:13;;;;;;;24.57;12.53;;;;;;;-145.18;100.00;60484.78;5054710;28;20040;-68
2023/04/18 05:06:38;;;;;;;25.27;14.57;;;;;;;-145.18;100.00;60484.78;5049588;28;21840;-69
2023/04/18 05:09:04;;;;;;;28.83;12.87;;;;;;;-145.18;100.00;60484.78;5059247;28;20044;-68
2023/04/18 05:11:29;;;;;;;25.40;12.90;;;;;;;-145.18;100.00;60484.78;5053021;28;20052;-69
2023/04/18 05:13:55;;;;;;;20.43;9.20;;;;;;;-145.18;100.00;60484.78;5052458;28;20388;-69
2023/04/18 05:16:20;;;;;;;26.53;14.40;;;;;;;-145.18;100.00;60484.78;5052656;28;20048;-69
2023/04/18 05:18:46;;;;;;;24.63;13.57;;;;;;;-145.18;100.00;60484.78;5052151;28;20036;-68
2023/04/18 05:21:11;;;;;;;29.03;15.27;;;;;;;-145.18;100.00;60484.78;5053403;28;20428;-68
2023/04/18 05:23:37;;;;;;;23.73;13.37;;;;;;;-145.18;100.00;60484.78;5054709;28;20496;-69
2023/04/18 05:26:04;;;;;;;23.63;12.47;;;;;;;-145.18;100.00;60484.78;5053267;28;20033;-69
2023/04/18 05:28:30;;;;;;;19.87;10.30;;;;;;;-145.18;100.00;60484.78;5049921;28;20024;-69
2023/04/18 05:31:01;;;;;;;24.43;12.97;;;;;;;-145.18;100.00;60484.78;5051335;28;20029;-69
2023/04/18 05:33:30;;;;;;;26.90;14.95;;;;;;;-145.18;100.00;60484.78;5052009;28;20017;-68
2023/04/18 05:35:56;;;;;;;28.30;13.57;;;;;;;-145.18;100.00;60484.78;5053302;28;20020;-68
2023/04/18 05:38:22;;;;;;;21.07;10.73;;;;;;;-145.18;100.00;60484.78;5052702;28;20013;-68
2023/04/18 05:40:49;;;;;;;24.37;12.07;;;;;;;-145.18;100.00;60484.78;5055850;28;20028;-68
2023/04/18 05:43:17;;;;;;;31.60;15.70;;;;;;;-145.18;100.00;60484.78;5052881;28;20346;-69
2023/04/18 05:45:42;;;;;;;25.40;13.60;;;;;;;-145.18;100.00;60484.78;5054166;28;20102;-69
2023/04/18 05:48:08;;;;;;;26.57;14.33;;;;;;;-145.18;100.00;60484.78;5052981;28;20025;-69
2023/04/18 05:50:33;;;;;;;32.60;15.10;;;;;;;-145.18;100.00;60484.78;5053568;28;20389;-68
2023/04/18 05:53:00;;;;;;;26.13;15.07;;;;;;;-145.18;100.00;60484.78;5055424;28;20121;-69
2023/04/18 05:55:25;;;;;;;25.17;12.57;;;;;;;-145.18;100.00;60484.78;5053065;28;20052;-69
2023/04/18 05:57:51;;;;;;;23.43;13.00;;;;;;;-145.18;100.00;60484.78;5052911;28;20044;-69
2023/04/18 06:00:17;;;;;;;27.83;16.03;;;;;;;-145.18;100.00;60484.78;5052599;28;20389;-69
2023/04/18 06:02:43;;;;;;;25.53;13.20;;;;;;;-145.18;100.00;60484.78;5052674;28;20041;-69
2023/04/18 06:05:08;;;;;;;28.13;15.93;;;;;;;-145.18;100.00;60484.78;5052067;28;20095;-69
2023/04/18 06:07:34;;;;;;;27.73;13.97;;;;;;;-145.18;100.00;60484.78;5052174;28;20025;-69
2023/04/18 06:09:59;;;;;;;21.40;10.93;;;;;;;-145.18;100.00;60484.78;5055607;28;20024;-69
2023/04/18 06:12:25;;;;;;;28.70;15.73;;;;;;;-145.18;100.00;60484.78;5052625;28;20021;-68
2023/04/18 06:14:51;;;;;;;28.90;15.90;;;;;;;-145.18;100.00;60484.78;5055185;28;20059;-69
2023/04/18 06:17:16;;;;;;;20.00;9.37;;;;;;;-145.18;100.00;60484.78;5052946;28;20025;-69
2023/04/18 06:19:41;;;;;;;30.50;15.63;;;;;;;-145.18;100.00;60484.78;5052501;28;20492;-68
2023/04/18 06:22:07;;;;;;;29.90;16.53;;;;;;;-145.18;100.00;60484.78;5051980;28;20036;-69
2023/04/18 06:24:33;;;;;;;28.80;14.23;;;;;;;-145.18;100.00;60484.78;5052475;28;20060;-69
2023/04/18 06:26:58;;;;;;;29.10;15.27;;;;;;;-145.18;100.00;60484.78;5052230;28;20179;-68
2023/04/18 06:29:26;;;;;;;26.73;14.67;;;;;;;-145.18;100.00;60484.78;5053249;28;20047;-68
2023/04/18 06:31:52;;;;;;;19.73;9.97;;;;;;;-145.18;100.00;60484.78;5049124;28;20025;-68
2023/04/18 06:34:17;;;;;;;16.97;8.57;;;;;;;-145.18;100.00;60484.78;5051685;28;20040;-68
2023/04/18 06:36:43;;;;;;;23.97;12.50;;;;;;;-145.18;100.00;60484.78;5052399;28;20029;-69
2023/04/18 06:39:08;;;;;;;23.83;12.17;;;;;;;-145.18;100.00;60484.78;5051634;28;20025;-69
2023/04/18 06:41:34;;;;;;;23.87;11.43;;;;;;;-145.18;100.00;60484.78;5051861;28;20016;-68
2023/04/18 06:43:59;;;;;;;25.80;14.77;;;;;;;-145.18;100.00;60484.78;5052121;28;20027;-69
2023/04/18 06:46:25;;;;;;;22.03;11.70;;;;;;;-145.18;100.00;60484.78;5051159;28;20051;-69
2023/04/18 06:48:50;;;;;;;17.87;8.43;;;;;;;-145.18;100.00;60484.78;5052500;28;20025;-68
2023/04/18 06:51:16;;;;;;;18.27;8.13;;;;;;;-145.18;100.00;60484.78;5051964;28;20033;-69
2023/04/18 06:53:44;;;;;;;18.83;10.57;;;;;;;-145.18;100.00;60484.78;5051962;28;20108;-68
2023/04/18 06:56:10;;;;;;;21.37;12.00;;;;;;;-145.18;100.00;60484.78;5051326;28;20440;-68
2023/04/18 06:58:35;;;;;;;23.53;11.90;;;;;;;-145.18;100.00;60484.78;5053192;28;20100;-68
2023/04/18 07:01:01;;;;;;;25.27;13.33;;;;;;;-145.18;100.00;60484.78;5051872;28;20052;-69
2023/04/18 07:03:26;;;;;;;27.00;12.73;;;;;;;-145.18;100.00;60484.78;5051553;28;20047;-68
2023/04/18 07:05:51;;;;;;;25.70;14.07;;;;;;;-145.18;100.00;60484.78;5052225;28;20024;-68
2023/04/18 07:08:17;;;;;;;28.37;14.10;;;;;;;-145.18;100.00;60484.78;5051476;28;20017;-70
2023/04/18 07:10:42;;;;;;;19.37;9.33;;;;;;;-145.18;100.00;60484.78;5052854;28;20025;-69
2023/04/18 07:13:08;;;;;;;26.50;12.40;;;;;;;-145.18;100.00;60484.78;5052027;28;20550;-68
2023/04/18 07:15:34;;;;;;;21.63;11.17;;;;;;;-145.18;100.00;60484.78;5049646;28;20021;-69
2023/04/18 07:18:00;;;;;;;26.73;13.53;;;;;;;-145.18;100.00;60484.78;5051905;28;20469;-68
2023/04/18 07:20:25;;;;;;;17.00;7.87;;;;;;;-145.18;100.00;60484.78;5051585;28;20029;-68
2023/04/18 07:22:51;;;;;;;16.10;7.73;;;;;;;-145.18;100.00;60484.78;5056133;28;20028;-68
2023/04/18 07:25:16;;;;;;;17.07;9.43;;;;;;;-145.18;100.00;60484.78;5051620;28;20025;-68
2023/04/18 07:27:42;;;;;;;20.33;10.63;;;;;;;-145.18;100.00;60484.78;5052687;28;20029;-69
2023/04/18 07:30:08;;;;;;;22.40;10.90;;;;;;;-145.18;100.00;60484.78;5049757;28;20488;-68
2023/04/18 07:32:34;;;;;;;17.60;10.27;;;;;;;-145.18;100.00;60484.78;5049713;28;20435;-69
2023/04/18 07:35:00;;;;;;;17.47;9.17;;;;;;;-145.18;100.00;60484.78;5052830;28;20099;-69
2023/04/18 07:37:25;;;;;;;19.37;10.57;;;;;;;-145.18;100.00;60484.78;5051802;28;20159;-70
2023/04/18 07:39:51;;;;;;;15.40;7.40;;;;;;;-145.18;100.00;60484.78;5051404;28;20028;-69
2023/04/18 07:42:16;;;;;;;22.63;12.60;;;;;;;-145.18;100.00;60484.78;5053394;28;20052;-68
2023/04/18 07:44:43;;;;;;;17.70;8.57;;;;;;;-145.18;100.00;60484.78;5033542;28;20074;-68
2023/04/18 07:47:09;;;;;;;19.70;10.27;;;;;;;-145.18;100.00;60484.78;5050926;28;20067;-69
2023/04/18 07:49:34;;;;;;;17.93;9.23;;;;;;;-145.18;100.00;60484.78;5051288;28;20021;-69
2023/04/18 07:52:00;;;;;;;14.70;7.80;;;;;;;-145.18;100.00;60484.78;5051663;28;20021;-69
2023/04/18 07:54:25;;;;;;;13.97;6.50;;;;;;;-145.18;100.00;60484.78;5051805;28;20025;-69
2023/04/18 07:56:51;;;;;;;19.03;10.17;;;;;;;-145.18;100.00;60484.78;5051133;28;20025;-68
2023/04/18 07:59:16;;;;;;;17.87;9.40;;;;;;;-145.18;100.00;60484.78;5051470;28;20381;-69
2023/04/18 08:01:42;;;;;;;9.47;5.40;;;;;;;-145.18;100.00;60484.78;5051596;28;20032;-68
2023/04/18 08:04:07;;;;;;;14.73;7.23;;;;;;;-145.18;100.00;60484.78;5052233;28;20060;-68
2023/04/18 08:06:33;;;;;;;19.33;9.50;;;;;;;-145.18;100.00;60484.78;5052489;28;20035;-67
2023/04/18 08:09:03;;;;;;;12.83;6.77;;;;;;;-145.18;100.00;60484.78;5051293;28;20024;-68
2023/04/18 08:11:28;;;;;;;21.83;11.57;;;;;;;-145.18;100.00;60484.78;5050233;28;20370;-68
2023/04/18 08:13:54;;;;;;;19.40;11.33;;;;;;;-145.18;100.00;60484.78;5052966;28;20039;-69
2023/04/18 08:16:19;;;;;;;19.73;10.37;;;;;;;-145.18;100.00;60484.78;5049583;28;20452;-68
2023/04/18 08:18:45;;;;;;;22.30;11.00;;;;;;;-145.18;100.00;60484.78;5051477;28;20131;-68
2023/04/18 08:21:11;;;;;;;20.90;10.63;;;;;;;-145.18;100.00;60484.78;5050334;28;20029;-68
2023/04/18 08:23:37;;;;;;;11.10;5.63;;;;;;;-145.18;100.00;60484.78;5051548;28;20082;-68
2023/04/18 08:26:02;;;;;;;18.33;10.67;;;;;;;-145.18;100.00;60484.78;5057951;28;20024;-69
2023/04/18 08:28:28;;;;;;;14.10;7.63;;;;;;;-145.18;100.00;60484.78;5055034;28;20031;-68
2023/04/18 08:30:55;;;;;;;22.10;12.10;;;;;;;-145.18;100.00;60484.78;5055620;28;20100;-68
2023/04/18 08:33:25;;;;;;;19.87;7.83;;;;;;;-145.18;100.00;60484.78;5054056;28;20505;-68
2023/04/18 08:35:50;;;;;;;19.03;10.43;;;;;;;-145.18;100.00;60484.78;5055503;28;20033;-69
2023/04/18 08:38:17;;;;;;;18.63;9.30;;;;;;;-145.18;100.00;60484.78;5053901;28;20028;-70
2023/04/18 08:40:43;;;;;;;14.60;7.77;;;;;;;-145.18;100.00;60484.78;5054166;28;20155;-69
2023/04/18 08:43:13;;;;;;;11.70;5.73;;;;;;;-145.18;100.00;60484.78;5053874;28;20103;-69
2023/04/18 08:45:40;;;;;;;14.83;8.13;;;;;;;-145.18;100.00;60484.78;5054618;28;20052;-69
2023/04/18 08:48:06;;;;;;;17.87;9.50;;;;;;;-145.18;100.00;60484.78;5054496;28;20540;-69
2023/04/18 08:50:32;;;;;;;16.37;10.13;;;;;;;-145.18;100.00;60484.78;5054302;28;20033;-68
2023/04/18 08:53:00;;;;;;;17.20;9.63;;;;;;;-145.18;100.00;60484.78;5054485;28;20092;-69
2023/04/18 08:55:25;;;;;;;15.67;9.77;;;;;;;-145.18;100.00;60484.78;5055554;28;20063;-71
2023/04/18 08:57:54;;;;;;;10.97;5.53;;;;;;;-145.18;100.00;60484.78;5053726;28;20481;-68
2023/04/18 09:00:20;;;;;;;14.93;8.10;;;;;;;-145.18;100.00;60484.78;5054051;28;20453;-68
2023/04/18 09:02:45;;;;;;;14.13;7.40;;;;;;;-145.18;100.00;60484.78;5053993;28;20040;-69
2023/04/18 09:05:17;;;;;;;15.10;8.00;;;;;;;-145.18;100.00;60484.78;5054162;28;20013;-68
2023/04/18 09:07:43;;;;;;;11.50;5.90;;;;;;;-145.18;100.00;60484.78;5057068;28;20507;-69
2023/04/18 09:10:09;;;;;;;16.60;7.77;;;;;;;-145.18;100.00;60484.78;5034889;28;20112;-68
2023/04/18 09:12:51;;;;;;;16.00;7.47;;;;;;;-145.18;100.00;60484.78;5054898;28;20369;-68
2023/04/18 09:15:22;;;;;;;14.10;7.23;;;;;;;-145.18;100.00;60484.78;5053818;28;20104;-68
2023/04/18 09:17:50;;;;;;;11.93;6.97;;;;;;;-145.18;100.00;60484.78;5053782;28;20027;-69
2023/04/18 09:20:39;;;;;;;7.37;3.77;;;;;;;-145.18;100.00;60484.78;5056983;28;20040;-69
2023/04/18 09:23:22;;;;;;;14.90;9.13;;;;;;;-145.18;100.00;60484.78;5052787;28;20021;-69
2023/04/18 09:25:49;;;;;;;14.43;7.50;;;;;;;-145.18;100.00;60484.78;5049287;28;20583;-69
2023/04/18 09:28:27;;;;;;;11.68;6.10;;;;;;;-145.18;100.00;60484.78;5052381;28;20024;-68
2023/04/18 09:30:54;;;;;;;8.63;5.07;;;;;;;-145.18;100.00;60484.78;5053897;28;20086;-69
2023/04/18 09:33:35;;;;;;;10.38;5.68;;;;;;;-145.18;100.00;60484.78;5054985;28;20104;-69
2023/04/18 09:36:21;;;;;;;12.27;5.57;;;;;;;-145.18;100.00;60484.78;5051807;28;20103;-69
2023/04/18 09:38:47;;;;;;;15.65;6.95;;;;;;;-145.18;100.00;60484.78;5053011;28;20104;-69
2023/04/18 09:41:15;;;;;;;14.07;7.53;;;;;;;-145.18;100.00;60484.78;5053657;28;20407;-69
2023/04/18 09:43:42;;;;;;;14.82;9.10;;;;;;;-145.18;100.00;60484.78;5052879;28;20036;-69
2023/04/18 09:46:08;;;;;;;15.93;7.65;;;;;;;-145.18;100.00;60484.78;5052661;28;20367;-70
2023/04/18 09:48:34;;;;;;;12.98;7.20;;;;;;;-145.18;100.00;60484.78;5053144;28;20017;-70
2023/04/18 09:51:05;;;;;;;13.35;7.95;;;;;;;-145.18;100.00;60484.78;5053501;28;20023;-70
2023/04/18 09:53:31;;;;;;;;;;;;;;;-145.18;100.00;60484.78;5051964;28;20029;-69
2023/04/18 09:55:57;;;;;;;13.45;7.55;;;;;;;-145.18;100.00;60484.78;5053335;28;20525;-69
2023/04/18 09:58:29;;;;;;;12.00;7.25;;;;;;;-145.18;100.00;60484.78;5052527;28;20032;-69
2023/04/18 10:00:55;;;;;;;;;;;;;;;-145.18;100.00;60484.78;5053135;28;20028;-70
2023/04/18 10:03:33;;;;;;;12.63;6.30;;;;;;;-145.18;100.00;60484.78;5052477;28;20001;-69
2023/04/18 10:05:58;;;;;;;13.15;7.97;;;;;;;-145.18;100.00;60484.78;5053056;28;20021;-70
2023/04/18 10:08:25;;;;;;;12.02;7.00;;;;;;;-145.18;100.00;60484.78;5052845;28;20095;-69
2023/04/18 10:10:50;;;;;;;10.35;6.78;;;;;;;-145.18;100.00;60484.78;5052640;28;20024;-69
2023/04/18 10:13:18;;;;;;;10.80;6.53;;;;;;;-145.18;100.00;60484.78;5054650;28;20029;-69
2023/04/18 10:15:43;;;;;;;10.77;6.85;;;;;;;-145.18;100.00;60484.78;5052679;28;20027;-69
2023/04/18 10:18:12;;;;;;;10.00;6.13;;;;;;;-145.18;100.00;60484.78;5052583;28;20013;-69
2023/04/18 10:20:40;;;;;;;10.55;5.53;;;;;;;-145.18;100.00;60484.78;5052062;28;20376;-70
2023/04/18 10:23:50;;;;;;;12.82;7.32;;;;;;;-145.18;100.00;60484.78;5053592;28;20461;-69
2023/04/18 10:26:17;;;;;;;12.40;7.57;;;;;;;-145.18;100.00;60484.78;5052431;28;20044;-70
2023/04/18 10:28:56;;;;;;;8.65;4.85;;;;;;;-145.18;100.00;60484.78;5057697;28;20033;-70
2023/04/18 10:31:26;;;;;;;11.73;7.00;;;;;;;-145.18;100.00;60484.78;5054098;28;20067;-70
2023/04/18 10:33:54;;;;;;;7.63;4.45;;;;;;;-145.18;100.00;60484.78;5053183;28;20460;-69
2023/04/18 10:36:20;;;;;;;9.07;5.32;;;;;;;-145.18;100.00;60484.78;5049903;28;20031;-69
2023/04/18 10:38:48;;;;;;;11.23;5.28;;;;;;;-145.18;100.00;60484.78;5052710;28;20091;-69
2023/04/18 10:41:50;;;;;;;10.23;6.57;;;;;;;-145.18;100.00;60484.78;5048533;28;20047;-69
2023/04/18 10:44:17;;;;;;;9.52;4.85;;;;;;;-145.18;100.00;60484.78;5041857;28;20492;-69
2023/04/18 10:47:28;;;;;;;10.77;6.18;;;;;;;-145.18;100.00;60484.78;5052993;28;20069;-69
2023/04/18 10:49:55;;;;;;;7.82;4.55;;;;;;;-145.18;100.00;60484.78;5044173;28;20564;-69
2023/04/18 10:52:21;;;;;;;7.13;4.18;;;;;;;-145.18;100.00;60484.78;5052198;28;20021;-69
2023/04/18 10:54:53;;;;;;;10.30;6.18;;;;;;;-145.18;100.00;60484.78;5050782;28;20495;-69
2023/04/18 10:57:19;;;;;;;8.65;5.25;;;;;;;-145.18;100.00;60484.78;5053063;28;20055;-69
2023/04/18 10:59:49;;;;;;;7.13;4.20;;;;;;;-145.18;100.00;60484.78;5051843;28;20048;-69
2023/04/18 11:02:24;;;;;;;8.40;4.68;;;;;;;-145.18;100.00;60484.78;5051834;28;20477;-69
2023/04/18 11:04:54;;;;;;;6.97;3.72;;;;;;;-145.18;100.00;60484.78;5054504;28;20507;-70